sensor_id;sensor_type;location;lat;lon;timestamp;P1;durP1;ratioP1;P2;durP2;ratioP2
12852;SDS011;6495;51.808;7.478;2023-04-15T00:02:14;4.05;;;3.08;;
12852;SDS011;6495;51.808;7.478;2023-04-15T00:05:04;4.78;;;3.50;;
12852;SDS011;6495;51.808;7.478;2023-04-15T00:07:53;4.20;;;3.05;;
12852;SDS011;6495;51.808;7.478;2023-04-15T00:10:42;6.70;;;3.22;;
12852;SDS011;6495;51.808;7.478;2023-04-15T00:13:33;6.38;;;3.35;;
12852;SDS011;6495;51.808;7.478;2023-04-15T00:16:22;6.60;;;3.50;;
12852;SDS011;6495;51.808;7.478;2023-04-15T00:19:10;6.13;;;3.42;;
12852;SDS011;6495;51.808;7.478;2023-04-15T00:21:59;4.22;;;2.88;;
12852;SDS011;6495;51.808;7.478;2023-04-15T00:24:47;4.25;;;3.10;;
12852;SDS011;6495;51.808;7.478;2023-04-15T00:27:35;6.13;;;3.20;;
12852;SDS011;6495;51.808;7.478;2023-04-15T00:30:26;6.53;;;3.50;;
12852;SDS011;6495;51.808;7.478;2023-04-15T00:33:14;5.22;;;3.58;;
12852;SDS011;6495;51.808;7.478;2023-04-15T00:36:03;3.63;;;2.90;;
12852;SDS011;6495;51.808;7.478;2023-04-15T00:38:54;6.63;;;3.30;;
12852;SDS011;6495;51.808;7.478;2023-04-15T00:41:42;4.00;;;3.50;;
12852;SDS011;6495;51.808;7.478;2023-04-15T00:44:31;4.80;;;3.20;;
12852;SDS011;6495;51.808;7.478;2023-04-15T00:47:21;3.53;;;2.87;;
12852;SDS011;6495;51.808;7.478;2023-04-15T00:50:10;4.13;;;3.10;;
12852;SDS011;6495;51.808;7.478;2023-04-15T00:53:00;6.97;;;3.75;;
12852;SDS011;6495;51.808;7.478;2023-04-15T00:55:48;5.43;;;3.47;;
12852;SDS011;6495;51.808;7.478;2023-04-15T00:58:37;5.57;;;3.87;;
12852;SDS011;6495;51.808;7.478;2023-04-15T01:01:26;5.70;;;3.70;;
12852;SDS011;6495;51.808;7.478;2023-04-15T01:04:16;4.80;;;3.30;;
12852;SDS011;6495;51.808;7.478;2023-04-15T01:07:05;4.73;;;3.43;;
12852;SDS011;6495;51.808;7.478;2023-04-15T01:09:53;5.50;;;3.23;;
12852;SDS011;6495;51.808;7.478;2023-04-15T01:12:42;4.53;;;3.30;;
12852;SDS011;6495;51.808;7.478;2023-04-15T01:15:31;3.77;;;3.07;;
12852;SDS011;6495;51.808;7.478;2023-04-15T01:18:20;5.40;;;3.40;;
12852;SDS011;6495;51.808;7.478;2023-04-15T01:21:10;5.43;;;3.93;;
12852;SDS011;6495;51.808;7.478;2023-04-15T01:23:59;4.30;;;3.17;;
12852;SDS011;6495;51.808;7.478;2023-04-15T01:26:52;6.00;;;3.50;;
12852;SDS011;6495;51.808;7.478;2023-04-15T01:29:42;6.20;;;3.57;;
12852;SDS011;6495;51.808;7.478;2023-04-15T01:32:31;4.67;;;3.43;;
12852;SDS011;6495;51.808;7.478;2023-04-15T01:35:19;6.17;;;3.77;;
12852;SDS011;6495;51.808;7.478;2023-04-15T01:38:10;5.97;;;3.33;;
12852;SDS011;6495;51.808;7.478;2023-04-15T01:40:59;5.07;;;3.77;;
12852;SDS011;6495;51.808;7.478;2023-04-15T01:43:49;6.63;;;4.03;;
12852;SDS011;6495;51.808;7.478;2023-04-15T01:46:38;7.80;;;4.30;;
12852;SDS011;6495;51.808;7.478;2023-04-15T01:49:26;4.50;;;3.50;;
12852;SDS011;6495;51.808;7.478;2023-04-15T01:52:15;5.17;;;3.60;;
12852;SDS011;6495;51.808;7.478;2023-04-15T01:55:04;5.57;;;3.80;;
12852;SDS011;6495;51.808;7.478;2023-04-15T01:57:54;6.93;;;3.47;;
12852;SDS011;6495;51.808;7.478;2023-04-15T02:00:45;5.17;;;3.53;;
12852;SDS011;6495;51.808;7.478;2023-04-15T02:03:34;6.17;;;4.17;;
12852;SDS011;6495;51.808;7.478;2023-04-15T02:06:23;5.27;;;4.13;;
12852;SDS011;6495;51.808;7.478;2023-04-15T02:09:11;6.13;;;3.90;;
12852;SDS011;6495;51.808;7.478;2023-04-15T02:12:00;6.63;;;4.10;;
12852;SDS011;6495;51.808;7.478;2023-04-15T02:14:48;6.43;;;3.97;;
12852;SDS011;6495;51.808;7.478;2023-04-15T02:17:38;5.77;;;3.73;;
12852;SDS011;6495;51.808;7.478;2023-04-15T02:20:27;7.10;;;3.93;;
12852;SDS011;6495;51.808;7.478;2023-04-15T02:23:17;5.67;;;3.97;;
12852;SDS011;6495;51.808;7.478;2023-04-15T02:26:06;5.63;;;4.10;;
12852;SDS011;6495;51.808;7.478;2023-04-15T02:28:54;6.57;;;3.77;;
12852;SDS011;6495;51.808;7.478;2023-04-15T02:31:43;6.53;;;3.90;;
12852;SDS011;6495;51.808;7.478;2023-04-15T02:34:33;5.33;;;3.90;;
12852;SDS011;6495;51.808;7.478;2023-04-15T02:37:21;6.87;;;4.07;;
12852;SDS011;6495;51.808;7.478;2023-04-15T02:40:14;6.70;;;3.80;;
12852;SDS011;6495;51.808;7.478;2023-04-15T02:43:04;6.40;;;4.00;;
12852;SDS011;6495;51.808;7.478;2023-04-15T02:45:53;5.67;;;4.33;;
12852;SDS011;6495;51.808;7.478;2023-04-15T02:48:42;8.70;;;4.33;;
12852;SDS011;6495;51.808;7.478;2023-04-15T02:51:32;6.93;;;4.63;;
12852;SDS011;6495;51.808;7.478;2023-04-15T02:54:20;5.70;;;4.03;;
12852;SDS011;6495;51.808;7.478;2023-04-15T02:57:09;6.60;;;4.03;;
12852;SDS011;6495;51.808;7.478;2023-04-15T02:59:58;6.67;;;4.10;;
12852;SDS011;6495;51.808;7.478;2023-04-15T03:02:47;5.20;;;3.97;;
12852;SDS011;6495;51.808;7.478;2023-04-15T03:05:38;5.80;;;3.73;;
12852;SDS011;6495;51.808;7.478;2023-04-15T03:08:28;5.83;;;4.30;;
12852;SDS011;6495;51.808;7.478;2023-04-15T03:11:17;5.97;;;4.00;;
12852;SDS011;6495;51.808;7.478;2023-04-15T03:14:06;6.70;;;3.80;;
12852;SDS011;6495;51.808;7.478;2023-04-15T03:16:59;6.60;;;5.07;;
12852;SDS011;6495;51.808;7.478;2023-04-15T03:19:47;6.80;;;4.33;;
12852;SDS011;6495;51.808;7.478;2023-04-15T03:22:36;5.23;;;4.20;;
12852;SDS011;6495;51.808;7.478;2023-04-15T03:25:26;7.10;;;4.30;;
12852;SDS011;6495;51.808;7.478;2023-04-15T03:28:14;6.83;;;4.90;;
12852;SDS011;6495;51.808;7.478;2023-04-15T03:31:03;6.50;;;4.27;;
12852;SDS011;6495;51.808;7.478;2023-04-15T03:33:52;5.50;;;4.30;;
12852;SDS011;6495;51.808;7.478;2023-04-15T03:36:41;6.33;;;4.17;;
12852;SDS011;6495;51.808;7.478;2023-04-15T03:39:29;5.83;;;3.70;;
12852;SDS011;6495;51.808;7.478;2023-04-15T03:42:19;6.50;;;3.90;;
12852;SDS011;6495;51.808;7.478;2023-04-15T03:45:07;7.17;;;4.87;;
12852;SDS011;6495;51.808;7.478;2023-04-15T03:47:57;7.50;;;4.73;;
12852;SDS011;6495;51.808;7.478;2023-04-15T03:51:02;6.23;;;5.00;;
12852;SDS011;6495;51.808;7.478;2023-04-15T03:53:50;7.00;;;4.87;;
12852;SDS011;6495;51.808;7.478;2023-04-15T03:56:38;7.33;;;4.63;;
12852;SDS011;6495;51.808;7.478;2023-04-15T03:59:28;6.47;;;4.57;;
12852;SDS011;6495;51.808;7.478;2023-04-15T04:02:17;7.47;;;4.80;;
12852;SDS011;6495;51.808;7.478;2023-04-15T04:05:06;5.77;;;4.33;;
12852;SDS011;6495;51.808;7.478;2023-04-15T04:07:55;6.40;;;4.80;;
12852;SDS011;6495;51.808;7.478;2023-04-15T04:10:43;8.63;;;4.93;;
12852;SDS011;6495;51.808;7.478;2023-04-15T04:13:32;7.00;;;4.70;;
12852;SDS011;6495;51.808;7.478;2023-04-15T04:16:21;7.10;;;4.93;;
12852;SDS011;6495;51.808;7.478;2023-04-15T04:19:10;8.10;;;5.03;;
12852;SDS011;6495;51.808;7.478;2023-04-15T04:22:00;7.13;;;4.90;;
12852;SDS011;6495;51.808;7.478;2023-04-15T04:24:48;11.20;;;4.83;;
12852;SDS011;6495;51.808;7.478;2023-04-15T04:27:37;7.87;;;4.80;;
12852;SDS011;6495;51.808;7.478;2023-04-15T04:30:25;6.53;;;4.47;;
12852;SDS011;6495;51.808;7.478;2023-04-15T04:33:15;6.77;;;4.70;;
12852;SDS011;6495;51.808;7.478;2023-04-15T04:36:04;7.70;;;4.90;;
12852;SDS011;6495;51.808;7.478;2023-04-15T04:38:53;7.10;;;4.53;;
12852;SDS011;6495;51.808;7.478;2023-04-15T04:41:41;9.43;;;4.67;;
12852;SDS011;6495;51.808;7.478;2023-04-15T04:44:31;6.53;;;4.57;;
12852;SDS011;6495;51.808;7.478;2023-04-15T04:47:20;10.20;;;4.60;;
12852;SDS011;6495;51.808;7.478;2023-04-15T04:50:10;8.30;;;4.47;;
12852;SDS011;6495;51.808;7.478;2023-04-15T04:52:58;6.13;;;4.53;;
12852;SDS011;6495;51.808;7.478;2023-04-15T04:55:47;8.90;;;5.33;;
12852;SDS011;6495;51.808;7.478;2023-04-15T04:58:35;8.60;;;5.27;;
12852;SDS011;6495;51.808;7.478;2023-04-15T05:01:24;7.50;;;5.13;;
12852;SDS011;6495;51.808;7.478;2023-04-15T05:04:13;6.67;;;4.57;;
12852;SDS011;6495;51.808;7.478;2023-04-15T05:07:03;7.10;;;4.67;;
12852;SDS011;6495;51.808;7.478;2023-04-15T05:09:52;6.20;;;4.33;;
12852;SDS011;6495;51.808;7.478;2023-04-15T05:12:40;8.30;;;4.40;;
12852;SDS011;6495;51.808;7.478;2023-04-15T05:15:29;8.63;;;4.93;;
12852;SDS011;6495;51.808;7.478;2023-04-15T05:18:18;8.90;;;5.00;;
12852;SDS011;6495;51.808;7.478;2023-04-15T05:21:07;7.33;;;4.83;;
12852;SDS011;6495;51.808;7.478;2023-04-15T05:23:57;8.03;;;5.53;;
12852;SDS011;6495;51.808;7.478;2023-04-15T05:26:46;6.50;;;4.73;;
12852;SDS011;6495;51.808;7.478;2023-04-15T05:29:34;7.27;;;4.77;;
12852;SDS011;6495;51.808;7.478;2023-04-15T05:32:23;9.10;;;5.10;;
12852;SDS011;6495;51.808;7.478;2023-04-15T05:35:12;8.80;;;5.73;;
12852;SDS011;6495;51.808;7.478;2023-04-15T05:38:00;7.00;;;4.63;;
12852;SDS011;6495;51.808;7.478;2023-04-15T05:40:50;8.33;;;4.57;;
12852;SDS011;6495;51.808;7.478;2023-04-15T05:43:39;9.13;;;5.43;;
12852;SDS011;6495;51.808;7.478;2023-04-15T05:46:27;6.80;;;5.30;;
12852;SDS011;6495;51.808;7.478;2023-04-15T05:49:16;9.60;;;5.43;;
12852;SDS011;6495;51.808;7.478;2023-04-15T05:52:04;8.50;;;5.20;;
12852;SDS011;6495;51.808;7.478;2023-04-15T05:54:53;9.67;;;5.43;;
12852;SDS011;6495;51.808;7.478;2023-04-15T05:57:43;8.70;;;5.53;;
12852;SDS011;6495;51.808;7.478;2023-04-15T06:00:32;10.37;;;5.77;;
12852;SDS011;6495;51.808;7.478;2023-04-15T06:03:20;8.63;;;5.50;;
12852;SDS011;6495;51.808;7.478;2023-04-15T06:06:09;9.03;;;6.00;;
12852;SDS011;6495;51.808;7.478;2023-04-15T06:08:59;9.87;;;5.00;;
12852;SDS011;6495;51.808;7.478;2023-04-15T06:11:47;8.30;;;5.53;;
12852;SDS011;6495;51.808;7.478;2023-04-15T06:14:37;7.97;;;5.83;;
12852;SDS011;6495;51.808;7.478;2023-04-15T06:17:26;7.40;;;5.30;;
12852;SDS011;6495;51.808;7.478;2023-04-15T06:20:15;9.07;;;5.73;;
12852;SDS011;6495;51.808;7.478;2023-04-15T06:23:04;9.93;;;5.80;;
12852;SDS011;6495;51.808;7.478;2023-04-15T06:25:53;8.27;;;5.83;;
12852;SDS011;6495;51.808;7.478;2023-04-15T06:28:41;11.43;;;6.13;;
12852;SDS011;6495;51.808;7.478;2023-04-15T06:31:31;10.57;;;5.97;;
12852;SDS011;6495;51.808;7.478;2023-04-15T06:34:21;11.60;;;6.03;;
12852;SDS011;6495;51.808;7.478;2023-04-15T06:37:09;13.53;;;6.13;;
12852;SDS011;6495;51.808;7.478;2023-04-15T06:40:01;12.53;;;6.87;;
12852;SDS011;6495;51.808;7.478;2023-04-15T06:42:50;10.03;;;6.70;;
12852;SDS011;6495;51.808;7.478;2023-04-15T06:45:39;11.70;;;7.33;;
12852;SDS011;6495;51.808;7.478;2023-04-15T06:48:29;12.87;;;7.47;;
12852;SDS011;6495;51.808;7.478;2023-04-15T06:51:18;12.57;;;7.37;;
12852;SDS011;6495;51.808;7.478;2023-04-15T06:54:06;11.93;;;7.67;;
12852;SDS011;6495;51.808;7.478;2023-04-15T06:56:55;12.67;;;7.27;;
12852;SDS011;6495;51.808;7.478;2023-04-15T06:59:43;14.03;;;6.90;;
12852;SDS011;6495;51.808;7.478;2023-04-15T07:02:32;9.27;;;6.20;;
12852;SDS011;6495;51.808;7.478;2023-04-15T07:05:22;11.90;;;6.70;;
12852;SDS011;6495;51.808;7.478;2023-04-15T07:08:12;10.97;;;6.73;;
12852;SDS011;6495;51.808;7.478;2023-04-15T07:11:00;11.17;;;6.73;;
12852;SDS011;6495;51.808;7.478;2023-04-15T07:13:49;12.63;;;6.67;;
12852;SDS011;6495;51.808;7.478;2023-04-15T07:16:38;11.90;;;6.67;;
12852;SDS011;6495;51.808;7.478;2023-04-15T07:19:26;11.90;;;7.63;;
12852;SDS011;6495;51.808;7.478;2023-04-15T07:22:16;14.63;;;9.10;;
12852;SDS011;6495;51.808;7.478;2023-04-15T07:25:06;12.47;;;7.33;;
12852;SDS011;6495;51.808;7.478;2023-04-15T07:27:55;11.43;;;7.33;;
12852;SDS011;6495;51.808;7.478;2023-04-15T07:30:44;11.17;;;6.67;;
12852;SDS011;6495;51.808;7.478;2023-04-15T07:33:34;13.33;;;7.53;;
12852;SDS011;6495;51.808;7.478;2023-04-15T07:36:25;11.07;;;7.00;;
12852;SDS011;6495;51.808;7.478;2023-04-15T07:39:16;9.53;;;7.10;;
12852;SDS011;6495;51.808;7.478;2023-04-15T07:42:05;12.40;;;6.47;;
12852;SDS011;6495;51.808;7.478;2023-04-15T07:44:54;8.27;;;5.33;;
12852;SDS011;6495;51.808;7.478;2023-04-15T07:47:50;10.23;;;6.37;;
12852;SDS011;6495;51.808;7.478;2023-04-15T07:50:39;8.87;;;6.47;;
12852;SDS011;6495;51.808;7.478;2023-04-15T07:53:27;10.27;;;6.67;;
12852;SDS011;6495;51.808;7.478;2023-04-15T07:56:17;9.30;;;6.13;;
12852;SDS011;6495;51.808;7.478;2023-04-15T07:59:06;10.07;;;6.23;;
12852;SDS011;6495;51.808;7.478;2023-04-15T08:01:55;10.83;;;6.33;;
12852;SDS011;6495;51.808;7.478;2023-04-15T08:04:44;9.90;;;5.97;;
12852;SDS011;6495;51.808;7.478;2023-04-15T08:07:32;8.70;;;6.20;;
12852;SDS011;6495;51.808;7.478;2023-04-15T08:10:21;9.80;;;6.50;;
12852;SDS011;6495;51.808;7.478;2023-04-15T08:13:12;12.37;;;7.63;;
12852;SDS011;6495;51.808;7.478;2023-04-15T08:16:13;11.17;;;6.30;;
12852;SDS011;6495;51.808;7.478;2023-04-15T08:19:09;10.27;;;6.43;;
12852;SDS011;6495;51.808;7.478;2023-04-15T08:21:57;9.20;;;6.00;;
12852;SDS011;6495;51.808;7.478;2023-04-15T08:24:46;12.47;;;7.03;;
12852;SDS011;6495;51.808;7.478;2023-04-15T08:27:34;10.67;;;6.17;;
12852;SDS011;6495;51.808;7.478;2023-04-15T08:30:24;9.47;;;6.23;;
12852;SDS011;6495;51.808;7.478;2023-04-15T08:33:13;10.53;;;6.07;;
12852;SDS011;6495;51.808;7.478;2023-04-15T08:36:02;9.73;;;6.87;;
12852;SDS011;6495;51.808;7.478;2023-04-15T08:38:51;10.13;;;6.87;;
12852;SDS011;6495;51.808;7.478;2023-04-15T08:41:45;11.13;;;8.07;;
12852;SDS011;6495;51.808;7.478;2023-04-15T08:44:42;8.17;;;6.23;;
12852;SDS011;6495;51.808;7.478;2023-04-15T08:47:34;10.30;;;6.07;;
12852;SDS011;6495;51.808;7.478;2023-04-15T08:50:25;10.57;;;6.90;;
12852;SDS011;6495;51.808;7.478;2023-04-15T08:53:17;10.27;;;6.70;;
12852;SDS011;6495;51.808;7.478;2023-04-15T08:56:06;7.93;;;5.40;;
12852;SDS011;6495;51.808;7.478;2023-04-15T08:58:59;11.67;;;5.97;;
12852;SDS011;6495;51.808;7.478;2023-04-15T09:01:49;8.63;;;5.43;;
12852;SDS011;6495;51.808;7.478;2023-04-15T09:04:40;9.97;;;6.40;;
12852;SDS011;6495;51.808;7.478;2023-04-15T09:07:28;9.63;;;6.47;;
12852;SDS011;6495;51.808;7.478;2023-04-15T09:10:17;7.60;;;5.83;;
12852;SDS011;6495;51.808;7.478;2023-04-15T09:13:05;8.83;;;6.00;;
12852;SDS011;6495;51.808;7.478;2023-04-15T09:15:55;10.00;;;5.47;;
12852;SDS011;6495;51.808;7.478;2023-04-15T09:18:43;9.13;;;5.63;;
12852;SDS011;6495;51.808;7.478;2023-04-15T09:21:33;11.93;;;5.83;;
12852;SDS011;6495;51.808;7.478;2023-04-15T09:24:22;7.67;;;5.13;;
12852;SDS011;6495;51.808;7.478;2023-04-15T09:27:11;8.33;;;5.53;;
12852;SDS011;6495;51.808;7.478;2023-04-15T09:30:07;9.60;;;6.10;;
12852;SDS011;6495;51.808;7.478;2023-04-15T09:32:57;7.63;;;4.33;;
12852;SDS011;6495;51.808;7.478;2023-04-15T09:35:55;8.93;;;5.70;;
12852;SDS011;6495;51.808;7.478;2023-04-15T09:38:54;9.63;;;4.97;;
12852;SDS011;6495;51.808;7.478;2023-04-15T09:41:43;8.13;;;4.87;;
12852;SDS011;6495;51.808;7.478;2023-04-15T09:44:32;9.40;;;5.20;;
12852;SDS011;6495;51.808;7.478;2023-04-15T09:47:27;9.17;;;4.53;;
12852;SDS011;6495;51.808;7.478;2023-04-15T09:50:18;7.90;;;5.13;;
12852;SDS011;6495;51.808;7.478;2023-04-15T09:53:08;5.93;;;4.47;;
12852;SDS011;6495;51.808;7.478;2023-04-15T09:55:58;6.83;;;4.53;;
12852;SDS011;6495;51.808;7.478;2023-04-15T09:58:54;7.83;;;4.77;;
12852;SDS011;6495;51.808;7.478;2023-04-15T10:01:44;6.63;;;4.20;;
12852;SDS011;6495;51.808;7.478;2023-04-15T10:04:34;7.10;;;4.57;;
12852;SDS011;6495;51.808;7.478;2023-04-15T10:07:27;6.37;;;4.40;;
12852;SDS011;6495;51.808;7.478;2023-04-15T10:10:16;6.53;;;4.30;;
12852;SDS011;6495;51.808;7.478;2023-04-15T10:13:07;7.87;;;4.73;;
12852;SDS011;6495;51.808;7.478;2023-04-15T10:15:57;6.60;;;4.70;;
12852;SDS011;6495;51.808;7.478;2023-04-15T10:18:53;10.87;;;5.30;;
12852;SDS011;6495;51.808;7.478;2023-04-15T10:21:44;8.73;;;4.90;;
12852;SDS011;6495;51.808;7.478;2023-04-15T10:24:33;5.87;;;4.17;;
12852;SDS011;6495;51.808;7.478;2023-04-15T10:27:23;6.15;;;4.43;;
12852;SDS011;6495;51.808;7.478;2023-04-15T10:30:13;7.37;;;4.63;;
12852;SDS011;6495;51.808;7.478;2023-04-15T10:33:03;4.47;;;3.70;;
12852;SDS011;6495;51.808;7.478;2023-04-15T10:35:53;8.20;;;4.60;;
12852;SDS011;6495;51.808;7.478;2023-04-15T10:38:43;5.30;;;3.83;;
12852;SDS011;6495;51.808;7.478;2023-04-15T10:41:35;7.57;;;4.30;;
12852;SDS011;6495;51.808;7.478;2023-04-15T10:44:24;6.82;;;3.92;;
12852;SDS011;6495;51.808;7.478;2023-04-15T10:47:14;6.55;;;4.20;;
12852;SDS011;6495;51.808;7.478;2023-04-15T10:50:06;8.82;;;4.18;;
12852;SDS011;6495;51.808;7.478;2023-04-15T10:52:55;5.78;;;4.28;;
12852;SDS011;6495;51.808;7.478;2023-04-15T10:55:44;7.53;;;4.22;;
12852;SDS011;6495;51.808;7.478;2023-04-15T10:58:40;6.13;;;4.47;;
12852;SDS011;6495;51.808;7.478;2023-04-15T11:04:52;6.72;;;3.83;;
12852;SDS011;6495;51.808;7.478;2023-04-15T11:07:49;3.95;;;3.13;;
12852;SDS011;6495;51.808;7.478;2023-04-15T11:10:49;5.65;;;3.72;;
12852;SDS011;6495;51.808;7.478;2023-04-15T11:13:46;6.20;;;4.25;;
12852;SDS011;6495;51.808;7.478;2023-04-15T11:16:41;6.00;;;4.05;;
12852;SDS011;6495;51.808;7.478;2023-04-15T11:19:36;5.72;;;3.50;;
12852;SDS011;6495;51.808;7.478;2023-04-15T11:22:26;5.45;;;4.15;;
12852;SDS011;6495;51.808;7.478;2023-04-15T11:25:21;4.57;;;3.30;;
12852;SDS011;6495;51.808;7.478;2023-04-15T11:28:10;4.28;;;3.40;;
12852;SDS011;6495;51.808;7.478;2023-04-15T11:31:04;5.22;;;3.40;;
12852;SDS011;6495;51.808;7.478;2023-04-15T11:33:57;5.97;;;4.00;;
12852;SDS011;6495;51.808;7.478;2023-04-15T11:36:48;4.90;;;3.33;;
12852;SDS011;6495;51.808;7.478;2023-04-15T11:39:38;4.38;;;3.00;;
12852;SDS011;6495;51.808;7.478;2023-04-15T11:42:28;4.60;;;3.72;;
12852;SDS011;6495;51.808;7.478;2023-04-15T11:45:34;5.78;;;3.20;;
12852;SDS011;6495;51.808;7.478;2023-04-15T11:48:24;4.30;;;3.30;;
12852;SDS011;6495;51.808;7.478;2023-04-15T11:51:14;4.03;;;3.58;;
12852;SDS011;6495;51.808;7.478;2023-04-15T11:54:03;3.22;;;2.47;;
12852;SDS011;6495;51.808;7.478;2023-04-15T11:56:53;5.35;;;3.55;;
12852;SDS011;6495;51.808;7.478;2023-04-15T11:59:42;4.43;;;2.92;;
12852;SDS011;6495;51.808;7.478;2023-04-15T12:02:35;3.45;;;2.67;;
12852;SDS011;6495;51.808;7.478;2023-04-15T12:05:24;5.47;;;3.30;;
12852;SDS011;6495;51.808;7.478;2023-04-15T12:08:12;4.32;;;3.22;;
12852;SDS011;6495;51.808;7.478;2023-04-15T12:11:01;3.75;;;2.95;;
12852;SDS011;6495;51.808;7.478;2023-04-15T12:13:52;5.82;;;3.20;;
12852;SDS011;6495;51.808;7.478;2023-04-15T12:16:43;4.72;;;3.30;;
12852;SDS011;6495;51.808;7.478;2023-04-15T12:19:38;4.47;;;3.00;;
12852;SDS011;6495;51.808;7.478;2023-04-15T12:22:30;4.78;;;2.85;;
12852;SDS011;6495;51.808;7.478;2023-04-15T12:25:31;3.78;;;2.88;;
12852;SDS011;6495;51.808;7.478;2023-04-15T12:28:22;3.33;;;2.65;;
12852;SDS011;6495;51.808;7.478;2023-04-15T12:31:11;4.03;;;3.00;;
12852;SDS011;6495;51.808;7.478;2023-04-15T12:34:01;3.80;;;2.65;;
12852;SDS011;6495;51.808;7.478;2023-04-15T12:36:54;4.13;;;2.85;;
12852;SDS011;6495;51.808;7.478;2023-04-15T12:39:45;5.38;;;2.72;;
12852;SDS011;6495;51.808;7.478;2023-04-15T12:42:36;2.95;;;2.53;;
12852;SDS011;6495;51.808;7.478;2023-04-15T12:45:24;3.53;;;2.72;;
12852;SDS011;6495;51.808;7.478;2023-04-15T12:48:16;3.25;;;2.40;;
12852;SDS011;6495;51.808;7.478;2023-04-15T12:51:06;3.97;;;2.55;;
12852;SDS011;6495;51.808;7.478;2023-04-15T12:53:54;3.65;;;2.35;;
12852;SDS011;6495;51.808;7.478;2023-04-15T12:56:43;2.85;;;2.50;;
12852;SDS011;6495;51.808;7.478;2023-04-15T12:59:33;5.93;;;2.28;;
12852;SDS011;6495;51.808;7.478;2023-04-15T13:02:21;2.85;;;2.10;;
12852;SDS011;6495;51.808;7.478;2023-04-15T13:05:16;2.40;;;2.20;;
12852;SDS011;6495;51.808;7.478;2023-04-15T13:08:05;2.45;;;2.10;;
12852;SDS011;6495;51.808;7.478;2023-04-15T13:10:53;2.25;;;1.95;;
12852;SDS011;6495;51.808;7.478;2023-04-15T13:13:42;1.90;;;1.70;;
12852;SDS011;6495;51.808;7.478;2023-04-15T13:16:31;2.35;;;1.77;;
12852;SDS011;6495;51.808;7.478;2023-04-15T13:19:21;2.75;;;2.13;;
12852;SDS011;6495;51.808;7.478;2023-04-15T13:22:11;4.63;;;2.13;;
12852;SDS011;6495;51.808;7.478;2023-04-15T13:25:00;2.50;;;1.90;;
12852;SDS011;6495;51.808;7.478;2023-04-15T13:27:49;3.53;;;2.13;;
12852;SDS011;6495;51.808;7.478;2023-04-15T13:30:38;3.30;;;2.47;;
12852;SDS011;6495;51.808;7.478;2023-04-15T13:33:26;1.77;;;1.67;;
12852;SDS011;6495;51.808;7.478;2023-04-15T13:36:15;2.70;;;2.10;;
12852;SDS011;6495;51.808;7.478;2023-04-15T13:39:05;3.08;;;2.33;;
12852;SDS011;6495;51.808;7.478;2023-04-15T13:41:54;2.22;;;1.92;;
12852;SDS011;6495;51.808;7.478;2023-04-15T13:44:43;4.00;;;2.30;;
12852;SDS011;6495;51.808;7.478;2023-04-15T13:47:31;2.85;;;1.90;;
12852;SDS011;6495;51.808;7.478;2023-04-15T13:50:20;2.20;;;1.45;;
12852;SDS011;6495;51.808;7.478;2023-04-15T13:53:11;2.28;;;1.58;;
12852;SDS011;6495;51.808;7.478;2023-04-15T13:56:01;2.28;;;1.77;;
12852;SDS011;6495;51.808;7.478;2023-04-15T13:58:51;2.20;;;2.00;;
12852;SDS011;6495;51.808;7.478;2023-04-15T14:01:40;2.25;;;1.83;;
12852;SDS011;6495;51.808;7.478;2023-04-15T14:04:29;2.40;;;1.60;;
12852;SDS011;6495;51.808;7.478;2023-04-15T14:07:18;3.22;;;1.85;;
12852;SDS011;6495;51.808;7.478;2023-04-15T14:10:07;3.03;;;1.80;;
12852;SDS011;6495;51.808;7.478;2023-04-15T14:12:57;2.47;;;1.65;;
12852;SDS011;6495;51.808;7.478;2023-04-15T14:15:45;3.53;;;1.90;;
12852;SDS011;6495;51.808;7.478;2023-04-15T14:18:34;1.60;;;1.40;;
12852;SDS011;6495;51.808;7.478;2023-04-15T14:21:23;2.53;;;1.60;;
12852;SDS011;6495;51.808;7.478;2023-04-15T14:24:13;4.45;;;1.90;;
12852;SDS011;6495;51.808;7.478;2023-04-15T14:27:02;3.50;;;2.20;;
12852;SDS011;6495;51.808;7.478;2023-04-15T14:29:52;9.23;;;4.50;;
12852;SDS011;6495;51.808;7.478;2023-04-15T14:32:41;4.07;;;2.70;;
12852;SDS011;6495;51.808;7.478;2023-04-15T14:35:29;2.13;;;1.60;;
12852;SDS011;6495;51.808;7.478;2023-04-15T14:38:18;2.65;;;2.08;;
12852;SDS011;6495;51.808;7.478;2023-04-15T14:41:08;2.05;;;1.85;;
12852;SDS011;6495;51.808;7.478;2023-04-15T14:43:57;3.58;;;1.55;;
12852;SDS011;6495;51.808;7.478;2023-04-15T14:46:47;1.50;;;1.40;;
12852;SDS011;6495;51.808;7.478;2023-04-15T14:49:36;1.75;;;1.65;;
12852;SDS011;6495;51.808;7.478;2023-04-15T14:52:25;5.32;;;2.30;;
12852;SDS011;6495;51.808;7.478;2023-04-15T14:55:13;2.58;;;2.15;;
12852;SDS011;6495;51.808;7.478;2023-04-15T14:58:02;2.75;;;1.63;;
12852;SDS011;6495;51.808;7.478;2023-04-15T15:00:50;5.28;;;2.00;;
12852;SDS011;6495;51.808;7.478;2023-04-15T15:03:40;2.63;;;1.77;;
12852;SDS011;6495;51.808;7.478;2023-04-15T15:06:29;2.10;;;1.80;;
12852;SDS011;6495;51.808;7.478;2023-04-15T15:09:18;1.73;;;1.63;;
12852;SDS011;6495;51.808;7.478;2023-04-15T15:12:09;2.90;;;1.85;;
12852;SDS011;6495;51.808;7.478;2023-04-15T15:14:58;4.07;;;1.77;;
12852;SDS011;6495;51.808;7.478;2023-04-15T15:17:50;3.08;;;1.52;;
12852;SDS011;6495;51.808;7.478;2023-04-15T15:20:42;2.17;;;1.55;;
12852;SDS011;6495;51.808;7.478;2023-04-15T15:23:41;4.35;;;2.10;;
12852;SDS011;6495;51.808;7.478;2023-04-15T15:27:36;2.10;;;1.90;;
12852;SDS011;6495;51.808;7.478;2023-04-15T15:30:25;2.00;;;1.70;;
12852;SDS011;6495;51.808;7.478;2023-04-15T15:33:45;2.67;;;1.83;;
12852;SDS011;6495;51.808;7.478;2023-04-15T15:36:36;2.40;;;1.98;;
12852;SDS011;6495;51.808;7.478;2023-04-15T15:39:29;2.85;;;1.92;;
12852;SDS011;6495;51.808;7.478;2023-04-15T15:43:36;1.77;;;1.50;;
12852;SDS011;6495;51.808;7.478;2023-04-15T15:46:27;1.63;;;1.50;;
12852;SDS011;6495;51.808;7.478;2023-04-15T15:49:21;1.95;;;1.40;;
12852;SDS011;6495;51.808;7.478;2023-04-15T15:52:15;2.08;;;1.35;;
12852;SDS011;6495;51.808;7.478;2023-04-15T15:55:14;2.70;;;1.35;;
12852;SDS011;6495;51.808;7.478;2023-04-15T15:58:03;2.38;;;1.35;;
12852;SDS011;6495;51.808;7.478;2023-04-15T16:04:02;1.50;;;1.33;;
12852;SDS011;6495;51.808;7.478;2023-04-15T16:06:51;2.70;;;1.33;;
12852;SDS011;6495;51.808;7.478;2023-04-15T16:09:42;2.45;;;1.60;;
12852;SDS011;6495;51.808;7.478;2023-04-15T16:12:33;1.97;;;1.33;;
12852;SDS011;6495;51.808;7.478;2023-04-15T16:15:26;1.67;;;1.40;;
12852;SDS011;6495;51.808;7.478;2023-04-15T16:18:41;1.70;;;1.27;;
12852;SDS011;6495;51.808;7.478;2023-04-15T16:21:29;1.55;;;1.45;;
12852;SDS011;6495;51.808;7.478;2023-04-15T16:24:38;0.98;;;0.98;;
12852;SDS011;6495;51.808;7.478;2023-04-15T16:27:36;1.90;;;1.45;;
12852;SDS011;6495;51.808;7.478;2023-04-15T16:30:43;2.10;;;1.10;;
12852;SDS011;6495;51.808;7.478;2023-04-15T16:33:33;3.13;;;1.33;;
12852;SDS011;6495;51.808;7.478;2023-04-15T16:36:21;1.60;;;1.40;;
12852;SDS011;6495;51.808;7.478;2023-04-15T16:39:10;1.83;;;1.40;;
12852;SDS011;6495;51.808;7.478;2023-04-15T16:41:58;2.53;;;1.70;;
12852;SDS011;6495;51.808;7.478;2023-04-15T16:44:49;2.23;;;1.43;;
12852;SDS011;6495;51.808;7.478;2023-04-15T16:47:38;1.90;;;1.57;;
12852;SDS011;6495;51.808;7.478;2023-04-15T16:50:28;3.20;;;2.43;;
12852;SDS011;6495;51.808;7.478;2023-04-15T16:53:17;4.25;;;1.98;;
12852;SDS011;6495;51.808;7.478;2023-04-15T16:56:06;3.80;;;2.20;;
12852;SDS011;6495;51.808;7.478;2023-04-15T16:58:54;4.03;;;2.10;;
12852;SDS011;6495;51.808;7.478;2023-04-15T17:01:44;5.03;;;2.83;;
12852;SDS011;6495;51.808;7.478;2023-04-15T17:04:33;5.93;;;2.70;;
12852;SDS011;6495;51.808;7.478;2023-04-15T17:07:22;4.20;;;2.00;;
12852;SDS011;6495;51.808;7.478;2023-04-15T17:10:11;5.13;;;2.77;;
12852;SDS011;6495;51.808;7.478;2023-04-15T17:13:00;4.57;;;2.20;;
12852;SDS011;6495;51.808;7.478;2023-04-15T17:15:51;6.30;;;2.93;;
12852;SDS011;6495;51.808;7.478;2023-04-15T17:18:42;4.43;;;2.30;;
12852;SDS011;6495;51.808;7.478;2023-04-15T17:21:32;6.13;;;2.60;;
12852;SDS011;6495;51.808;7.478;2023-04-15T17:24:22;4.33;;;2.47;;
12852;SDS011;6495;51.808;7.478;2023-04-15T17:27:10;3.03;;;2.33;;
12852;SDS011;6495;51.808;7.478;2023-04-15T17:29:59;5.28;;;2.30;;